Time,TemperatureF,DewpointF,PressureIn,WindDirection,WindDirectionDegrees,WindSpeedMPH,WindSpeedGustMPH,Humidity,HourlyPrecipIn,Conditions,Clouds,dailyrainin,SoftwareType,DateUTC
2013-03-19 00:00:00,32.4,10.2,29.90,NW,307,3.0,13.0,39,0.00,,---,0.00,VWS V14.01,2013-03-19 06:00:00,
2013-03-19 00:10:00,32.4,10.2,29.86,NW,319,7.0,15.0,39,0.00,,---,0.00,VWS V14.01,2013-03-19 06:10:00,
2013-03-19 00:11:00,32.4,10.2,29.86,NW,319,7.0,15.0,39,0.00,,---,0.00,VWS V14.01,2013-03-19 06:11:00,
2013-03-19 00:20:00,32.7,10.5,29.86,NW,307,5.0,13.0,39,0.00,,---,0.00,VWS V14.01,2013-03-19 06:20:00,
2013-03-19 00:21:00,32.7,10.5,29.86,NW,307,5.0,13.0,39,0.00,,---,0.00,VWS V14.01,2013-03-19 06:21:00,
2013-03-19 00:30:00,32.3,10.1,29.86,WNW,290,5.0,14.0,39,0.00,,---,0.00,VWS V14.01,2013-03-19 06:30:00,
2013-03-19 00:31:00,32.3,10.1,29.86,WNW,290,5.0,14.0,39,0.00,,---,0.00,VWS V14.01,2013-03-19 06:31:00,
2013-03-19 00:40:00,33.0,9.6,29.86,NW,306,14.0,18.0,37,0.00,,---,0.00,VWS V14.01,2013-03-19 06:40:00,
2013-03-19 00:50:00,33.2,9.1,29.86,WNW,293,12.0,17.0,36,0.00,,---,0.00,VWS V14.01,2013-03-19 06:50:00,
2013-03-19 00:51:00,33.2,9.1,29.86,WNW,293,12.0,17.0,36,0.00,,---,0.00,VWS V14.01,2013-03-19 06:51:00,
2013-03-19 01:00:00,33.2,9.1,29.86,WNW,284,12.0,20.0,36,0.00,,---,0.00,VWS V14.01,2013-03-19 07:00:00,
2013-03-19 01:01:00,33.2,9.1,29.86,WNW,284,12.0,20.0,36,0.00,,---,0.00,VWS V14.01,2013-03-19 07:01:00,
2013-03-19 01:10:00,33.4,8.7,29.87,WNW,286,12.0,23.0,35,0.00,,---,0.00,VWS V14.01,2013-03-19 07:10:00,
2013-03-19 01:11:00,33.4,8.7,29.87,WNW,286,12.0,23.0,35,0.00,,---,0.00,VWS V14.01,2013-03-19 07:11:00,
2013-03-19 01:20:00,33.0,9.0,29.87,NW,317,14.0,22.0,36,0.00,,---,0.00,VWS V14.01,2013-03-19 07:20:00,
2013-03-19 01:30:00,32.7,8.7,29.88,West,277,16.0,19.0,36,0.00,,---,0.00,VWS V14.01,2013-03-19 07:30:00,
2013-03-19 01:40:00,32.0,8.7,29.87,West,261,6.0,17.0,37,0.00,,---,0.00,VWS V14.01,2013-03-19 07:40:00,
2013-03-19 01:41:00,32.0,8.7,29.87,West,261,6.0,17.0,37,0.00,,---,0.00,VWS V14.01,2013-03-19 07:41:00,
2013-03-19 01:50:00,32.1,8.2,29.88,West,277,10.0,17.0,36,0.00,,---,0.00,VWS V14.01,2013-03-19 07:50:00,
2013-03-19 01:51:00,32.1,8.2,29.88,West,277,10.0,17.0,36,0.00,,---,0.00,VWS V14.01,2013-03-19 07:51:00,
2013-03-19 02:00:00,32.4,7.8,29.88,West,279,12.0,23.0,35,0.00,,---,0.00,VWS V14.01,2013-03-19 08:00:00,
2013-03-19 02:01:00,32.4,7.8,29.88,West,279,12.0,23.0,35,0.00,,---,0.00,VWS V14.01,2013-03-19 08:01:00,
2013-03-19 02:10:00,32.7,8.1,29.84,NW,307,13.0,20.0,35,0.00,,---,0.00,VWS V14.01,2013-03-19 08:10:00,
2013-03-19 02:20:00,32.6,8.0,29.84,WNW,287,12.0,22.0,35,0.00,,---,0.00,VWS V14.01,2013-03-19 08:20:00,
2013-03-19 02:30:00,32.8,8.2,29.85,NW,309,12.0,22.0,35,0.00,,---,0.00,VWS V14.01,2013-03-19 08:30:00,
2013-03-19 02:40:00,33.0,8.4,29.85,NNW,330,17.0,23.0,35,0.00,,---,0.00,VWS V14.01,2013-03-19 08:40:00,
2013-03-19 02:41:00,33.0,8.4,29.85,NNW,330,17.0,23.0,35,0.00,,---,0.00,VWS V14.01,2013-03-19 08:41:00,
2013-03-19 02:50:00,32.5,8.5,29.85,North,355,11.0,18.0,36,0.00,,---,0.00,VWS V14.01,2013-03-19 08:50:00,
2013-03-19 03:00:00,32.5,8.5,29.85,WNW,297,11.0,17.0,36,0.00,,---,0.00,VWS V14.01,2013-03-19 09:00:00,
2013-03-19 03:01:00,32.5,8.5,29.85,WNW,297,11.0,17.0,36,0.00,,---,0.00,VWS V14.01,2013-03-19 09:01:00,
2013-03-19 03:10:00,32.7,8.7,29.83,NW,304,15.0,21.0,36,0.00,,---,0.00,VWS V14.01,2013-03-19 09:10:00,
2013-03-19 03:11:00,32.7,8.7,29.83,NW,304,15.0,21.0,36,0.00,,---,0.00,VWS V14.01,2013-03-19 09:11:00,
2013-03-19 03:20:00,32.8,8.8,29.83,WNW,289,10.0,19.0,36,0.00,,---,0.00,VWS V14.01,2013-03-19 09:20:00,
2013-03-19 03:21:00,32.8,8.8,29.83,WNW,289,10.0,19.0,36,0.00,,---,0.00,VWS V14.01,2013-03-19 09:21:00,
2013-03-19 03:30:00,32.8,8.8,29.84,WNW,286,12.0,25.0,36,0.00,,---,0.00,VWS V14.01,2013-03-19 09:30:00,
2013-03-19 03:31:00,32.8,8.8,29.84,WNW,286,12.0,25.0,36,0.00,,---,0.00,VWS V14.01,2013-03-19 09:31:00,
2013-03-19 03:40:00,32.7,9.3,29.83,WNW,300,14.0,24.0,37,0.00,,---,0.00,VWS V14.01,2013-03-19 09:40:00,
2013-03-19 03:41:00,32.7,9.3,29.83,WNW,300,14.0,24.0,37,0.00,,---,0.00,VWS V14.01,2013-03-19 09:41:00,
2013-03-19 03:50:00,32.7,9.3,29.83,WNW,290,9.0,21.0,37,0.00,,---,0.00,VWS V14.01,2013-03-19 09:50:00,
2013-03-19 03:51:00,32.7,9.3,29.83,WNW,290,9.0,21.0,37,0.00,,---,0.00,VWS V14.01,2013-03-19 09:51:00,
2013-03-19 04:00:00,32.5,9.1,29.84,West,279,18.0,22.0,37,0.00,,---,0.00,VWS V14.01,2013-03-19 10:00:00,
2013-03-19 04:10:00,32.3,9.6,29.84,West,279,13.0,19.0,38,0.00,,---,0.00,VWS V14.01,2013-03-19 10:10:00,
2013-03-19 04:20:00,32.3,9.6,29.84,WNW,286,13.0,22.0,38,0.00,,---,0.00,VWS V14.01,2013-03-19 10:20:00,
2013-03-19 04:30:00,31.5,10.0,29.85,NW,321,5.0,26.0,40,0.00,,---,0.00,VWS V14.01,2013-03-19 10:30:00,
2013-03-19 04:31:00,31.5,10.0,29.85,NW,321,5.0,26.0,40,0.00,,---,0.00,VWS V14.01,2013-03-19 10:31:00,
2013-03-19 04:40:00,30.6,12.3,29.87,NNW,333,13.0,21.0,46,0.00,,---,0.00,VWS V14.01,2013-03-19 10:40:00,
2013-03-19 04:41:00,30.6,12.3,29.87,NNW,333,13.0,21.0,46,0.00,,---,0.00,VWS V14.01,2013-03-19 10:41:00,
2013-03-19 04:50:00,29.5,13.6,29.87,NNW,327,14.0,19.0,51,0.00,,---,0.00,VWS V14.01,2013-03-19 10:50:00,
2013-03-19 05:00:00,29.4,14.0,29.90,NNW,337,12.0,20.0,52,0.00,,---,0.00,VWS V14.01,2013-03-19 11:00:00,
2013-03-19 05:10:00,28.9,14.8,29.90,NNW,338,11.0,21.0,55,0.00,,---,0.00,VWS V14.01,2013-03-19 11:10:00,
2013-03-19 05:11:00,28.9,14.8,29.90,NNW,338,11.0,21.0,55,0.00,,---,0.00,VWS V14.01,2013-03-19 11:11:00,
2013-03-19 05:20:00,28.9,14.8,29.90,North,360,16.0,19.0,55,0.00,,---,0.00,VWS V14.01,2013-03-19 11:20:00,
2013-03-19 05:21:00,28.9,14.8,29.90,North,360,16.0,19.0,55,0.00,,---,0.00,VWS V14.01,2013-03-19 11:21:00,
2013-03-19 05:30:00,28.8,14.7,29.90,NNW,336,11.0,19.0,55,0.00,,---,0.00,VWS V14.01,2013-03-19 11:30:00,
2013-03-19 05:40:00,29.6,14.1,29.89,NNW,347,16.0,22.0,52,0.00,,---,0.00,VWS V14.01,2013-03-19 11:40:00,
2013-03-19 05:50:00,29.9,13.1,29.89,NNW,333,11.0,20.0,49,0.00,,---,0.00,VWS V14.01,2013-03-19 11:50:00,
2013-03-19 06:00:00,30.7,11.9,29.90,NW,307,4.0,18.0,45,0.00,,---,0.00,VWS V14.01,2013-03-19 12:00:00,
2013-03-19 06:10:00,31.0,12.2,29.92,NW,326,7.0,16.0,45,0.00,,---,0.00,VWS V14.01,2013-03-19 12:10:00,
2013-03-19 06:11:00,31.0,12.2,29.92,NW,326,7.0,16.0,45,0.00,,---,0.00,VWS V14.01,2013-03-19 12:11:00,
2013-03-19 06:20:00,30.9,11.6,29.93,NW,322,6.0,13.0,44,0.00,,---,0.00,VWS V14.01,2013-03-19 12:20:00,
2013-03-19 06:30:00,31.1,11.2,29.94,NW,307,7.0,15.0,43,0.00,,---,0.00,VWS V14.01,2013-03-19 12:30:00,
2013-03-19 06:31:00,31.1,11.2,29.94,NW,307,7.0,15.0,43,0.00,,---,0.00,VWS V14.01,2013-03-19 12:31:00,
2013-03-19 06:40:00,31.3,10.9,29.94,WNW,300,4.0,12.0,42,0.00,,---,0.00,VWS V14.01,2013-03-19 12:40:00,
2013-03-19 06:41:00,31.3,10.9,29.94,WNW,300,4.0,12.0,42,0.00,,---,0.00,VWS V14.01,2013-03-19 12:41:00,
2013-03-19 06:50:00,31.5,10.5,29.93,WNW,291,6.0,14.0,41,0.00,,---,0.00,VWS V14.01,2013-03-19 12:50:00,
2013-03-19 07:00:00,31.3,10.4,29.96,WNW,286,12.0,14.0,41,0.00,,---,0.00,VWS V14.01,2013-03-19 13:00:00,
2013-03-19 07:10:00,30.9,10.0,29.96,West,263,9.0,17.0,41,0.00,,---,0.00,VWS V14.01,2013-03-19 13:10:00,
2013-03-19 07:11:00,30.9,10.0,29.96,West,263,9.0,17.0,41,0.00,,---,0.00,VWS V14.01,2013-03-19 13:11:00,
2013-03-19 07:20:00,31.3,9.2,29.96,West,277,11.0,16.0,39,0.00,,---,0.00,VWS V14.01,2013-03-19 13:20:00,
2013-03-19 07:30:00,31.2,8.6,29.95,West,280,15.0,21.0,38,0.00,,---,0.00,VWS V14.01,2013-03-19 13:30:00,
2013-03-19 07:40:00,31.5,8.2,29.93,West,280,13.0,21.0,37,0.00,,---,0.00,VWS V14.01,2013-03-19 13:40:00,
2013-03-19 07:50:00,31.4,8.7,29.94,WNW,286,12.0,19.0,38,0.00,,---,0.00,VWS V14.01,2013-03-19 13:50:00,
2013-03-19 07:51:00,31.4,8.7,29.94,WNW,286,12.0,19.0,38,0.00,,---,0.00,VWS V14.01,2013-03-19 13:51:00,
2013-03-19 08:00:00,31.9,8.6,29.95,WNW,292,9.0,23.0,37,0.00,,---,0.00,VWS V14.01,2013-03-19 14:00:00,
2013-03-19 08:10:00,32.3,7.1,29.95,WNW,284,15.0,23.0,34,0.00,,---,0.00,VWS V14.01,2013-03-19 14:10:00,
2013-03-19 08:20:00,33.0,7.7,29.95,NNW,327,6.0,21.0,34,0.00,,---,0.00,VWS V14.01,2013-03-19 14:20:00,
2013-03-19 08:30:00,33.3,8.6,29.95,NNW,340,9.0,14.0,35,0.00,,---,0.00,VWS V14.01,2013-03-19 14:30:00,
2013-03-19 08:40:00,33.3,9.2,29.96,North,9,7.0,12.0,36,0.00,,---,0.00,VWS V14.01,2013-03-19 14:40:00,
2013-03-19 08:50:00,33.4,8.7,29.97,North,11,0.0,8.0,35,0.00,,---,0.00,VWS V14.01,2013-03-19 14:50:00,
2013-03-19 09:00:00,33.9,9.1,29.96,NNE,13,15.0,20.0,35,0.00,,---,0.00,VWS V14.01,2013-03-19 15:00:00,
2013-03-19 09:10:00,34.2,8.8,29.97,NNE,21,0.0,15.0,34,0.00,,---,0.00,VWS V14.01,2013-03-19 15:10:00,
2013-03-19 09:20:00,34.8,6.5,29.96,North,5,12.0,17.0,30,0.00,,---,0.00,VWS V14.01,2013-03-19 15:20:00,
2013-03-19 09:30:00,35.2,8.3,29.95,North,355,7.0,19.0,32,0.00,,---,0.00,VWS V14.01,2013-03-19 15:30:00,
2013-03-19 09:40:00,34.9,7.3,29.95,NNE,13,13.0,22.0,31,0.00,,---,0.00,VWS V14.01,2013-03-19 15:40:00,
2013-03-19 09:50:00,35.9,7.5,29.95,North,5,10.0,24.0,30,0.00,,---,0.00,VWS V14.01,2013-03-19 15:50:00,
2013-03-19 10:00:00,36.2,7.8,29.94,North,360,10.0,17.0,30,0.00,,---,0.00,VWS V14.01,2013-03-19 16:00:00,
2013-03-19 10:10:00,37.2,3.8,29.95,NNW,342,6.0,21.0,24,0.00,,---,0.00,VWS V14.01,2013-03-19 16:10:00,
2013-03-19 10:20:00,37.0,5.3,29.94,North,360,10.0,15.0,26,0.00,,---,0.00,VWS V14.01,2013-03-19 16:20:00,
2013-03-19 10:30:00,37.1,1.8,29.94,NE,41,2.0,25.0,22,0.00,,---,0.00,VWS V14.01,2013-03-19 16:30:00,
2013-03-19 10:31:00,37.1,1.8,29.94,NE,41,2.0,25.0,22,0.00,,---,0.00,VWS V14.01,2013-03-19 16:31:00,
2013-03-19 10:40:00,37.6,7.5,29.93,NNW,341,13.0,26.0,28,0.00,,---,0.00,VWS V14.01,2013-03-19 16:40:00,
2013-03-19 10:50:00,37.7,6.7,29.93,NNE,19,13.0,26.0,27,0.00,,---,0.00,VWS V14.01,2013-03-19 16:50:00,
2013-03-19 10:51:00,37.7,6.8,29.93,NNE,19,13.0,26.0,27,0.00,,---,0.00,VWS V14.01,2013-03-19 16:51:00,
2013-03-19 11:00:00,38.8,5.1,29.92,North,360,2.0,16.0,24,0.00,,---,0.00,VWS V14.01,2013-03-19 17:00:00,
2013-03-19 11:10:00,38.8,4.2,29.92,NNE,29,0.0,11.0,23,0.00,,---,0.00,VWS V14.01,2013-03-19 17:10:00,
2013-03-19 11:20:00,40.5,3.7,29.91,NNE,29,0.0,3.0,21,0.00,,---,0.00,VWS V14.01,2013-03-19 17:20:00,
2013-03-19 11:30:00,41.1,0.8,29.91,West,267,5.0,15.0,18,0.00,,---,0.00,VWS V14.01,2013-03-19 17:30:00,
2013-03-19 11:40:00,41.1,2.0,29.91,NW,325,9.0,15.0,19,0.00,,---,0.00,VWS V14.01,2013-03-19 17:40:00,
2013-03-19 11:41:00,41.1,2.0,29.91,NW,325,9.0,15.0,19,0.00,,---,0.00,VWS V14.01,2013-03-19 17:41:00,
2013-03-19 11:50:00,40.8,-0.6,29.92,WNW,296,7.0,13.0,17,0.00,,---,0.00,VWS V14.01,2013-03-19 17:50:00,
2013-03-19 11:51:00,40.8,-0.6,29.92,WNW,296,7.0,13.0,17,0.00,,---,0.00,VWS V14.01,2013-03-19 17:51:00,
2013-03-19 12:00:00,41.3,-0.2,29.92,WNW,290,2.0,15.0,17,0.00,,---,0.00,VWS V14.01,2013-03-19 18:00:00,
2013-03-19 12:10:00,41.2,-2.9,29.90,North,5,16.0,22.0,15,0.00,,---,0.00,VWS V14.01,2013-03-19 18:10:00,
2013-03-19 12:20:00,41.4,-4.2,29.90,NNW,328,9.0,24.0,14,0.00,,---,0.00,VWS V14.01,2013-03-19 18:20:00,
2013-03-19 12:21:00,41.4,-4.2,29.90,NNW,328,9.0,24.0,14,0.00,,---,0.00,VWS V14.01,2013-03-19 18:21:00,
2013-03-19 12:30:00,41.6,-4.1,29.90,NW,310,12.0,23.0,14,0.00,,---,0.00,VWS V14.01,2013-03-19 18:30:00,
2013-03-19 12:31:00,41.6,-4.1,29.90,NW,310,12.0,23.0,14,0.00,,---,0.00,VWS V14.01,2013-03-19 18:31:00,
2013-03-19 12:40:00,41.6,-5.6,29.91,NW,304,11.0,18.0,13,0.00,,---,0.00,VWS V14.01,2013-03-19 18:40:00,
2013-03-19 12:50:00,41.6,-5.6,29.91,West,276,8.0,20.0,13,0.00,,---,0.00,VWS V14.01,2013-03-19 18:50:00,
2013-03-19 13:00:00,41.5,-4.1,29.91,NNW,336,5.0,24.0,14,0.00,,---,0.00,VWS V14.01,2013-03-19 19:00:00,
2013-03-19 13:10:00,41.4,-7.4,29.91,WNW,292,16.0,23.0,12,0.00,,---,0.00,VWS V14.01,2013-03-19 19:10:00,
2013-03-19 13:11:00,41.4,-7.4,29.91,WNW,292,16.0,23.0,12,0.00,,---,0.00,VWS V14.01,2013-03-19 19:11:00,
2013-03-19 13:20:00,41.6,-7.2,29.91,West,268,17.0,24.0,12,0.00,,---,0.00,VWS V14.01,2013-03-19 19:20:00,
2013-03-19 13:21:00,41.6,-7.2,29.91,West,268,17.0,24.0,12,0.00,,---,0.00,VWS V14.01,2013-03-19 19:21:00,
2013-03-19 13:30:00,41.6,-7.2,29.92,WSW,257,17.0,19.0,12,0.00,,---,0.00,VWS V14.01,2013-03-19 19:30:00,
2013-03-19 13:40:00,41.5,-9.1,29.91,SW,236,12.0,19.0,11,0.00,,---,0.00,VWS V14.01,2013-03-19 19:40:00,
2013-03-19 13:41:00,41.5,-9.1,29.91,SW,236,12.0,19.0,11,0.00,,---,0.00,VWS V14.01,2013-03-19 19:41:00,
2013-03-19 13:50:00,41.4,-9.2,29.92,WNW,302,11.0,33.0,11,0.00,,---,0.00,VWS V14.01,2013-03-19 19:50:00,
2013-03-19 14:00:00,42.2,-8.5,29.91,WNW,292,15.0,22.0,11,0.00,,---,0.00,VWS V14.01,2013-03-19 20:00:00,
2013-03-19 14:10:00,42.0,-10.6,29.91,NW,314,13.0,22.0,10,0.00,,---,0.00,VWS V14.01,2013-03-19 20:10:00,
2013-03-19 14:20:00,40.9,-11.5,29.92,NNW,346,12.0,26.0,10,0.00,,---,0.00,VWS V14.01,2013-03-19 20:20:00,
2013-03-19 14:30:00,42.6,-6.4,29.90,SW,229,16.0,19.0,12,0.00,,---,0.00,VWS V14.01,2013-03-19 20:30:00,
2013-03-19 14:31:00,42.6,-6.4,29.90,SW,229,16.0,19.0,12,0.00,,---,0.00,VWS V14.01,2013-03-19 20:31:00,
2013-03-19 14:40:00,42.7,-6.4,29.90,WSW,253,15.0,18.0,12,0.00,,---,0.00,VWS V14.01,2013-03-19 20:40:00,
2013-03-19 14:41:00,42.7,-6.4,29.90,WSW,253,15.0,18.0,12,0.00,,---,0.00,VWS V14.01,2013-03-19 20:41:00,
2013-03-19 14:50:00,42.1,-8.6,29.92,WNW,290,3.0,16.0,11,0.00,,---,0.00,VWS V14.01,2013-03-19 20:50:00,
2013-03-19 15:00:00,41.7,-8.9,29.91,West,259,9.0,23.0,11,0.00,,---,0.00,VWS V14.01,2013-03-19 21:00:00,
2013-03-19 15:10:00,41.7,-7.2,29.91,NW,321,9.0,22.0,12,0.00,,---,0.00,VWS V14.01,2013-03-19 21:10:00,
2013-03-19 15:11:00,41.7,-7.2,29.91,NW,321,9.0,22.0,12,0.00,,---,0.00,VWS V14.01,2013-03-19 21:11:00,
2013-03-19 15:20:00,42.1,-8.6,29.91,NNW,330,5.0,16.0,11,0.00,,---,0.00,VWS V14.01,2013-03-19 21:20:00,
2013-03-19 15:21:00,42.1,-8.6,29.91,NNW,330,5.0,16.0,11,0.00,,---,0.00,VWS V14.01,2013-03-19 21:21:00,
2013-03-19 15:30:00,42.6,-6.4,29.90,NW,312,2.0,23.0,12,0.00,,---,0.00,VWS V14.01,2013-03-19 21:30:00,
2013-03-19 15:31:00,42.6,-6.4,29.90,NW,312,2.0,23.0,12,0.00,,---,0.00,VWS V14.01,2013-03-19 21:31:00,
2013-03-19 15:40:00,41.9,-7.0,29.92,West,260,16.0,17.0,12,0.00,,---,0.00,VWS V14.01,2013-03-19 21:40:00,
2013-03-19 15:41:00,41.9,-7.0,29.92,West,260,16.0,17.0,12,0.00,,---,0.00,VWS V14.01,2013-03-19 21:41:00,
2013-03-19 15:50:00,42.0,-6.9,29.92,West,281,12.0,16.0,12,0.00,,---,0.00,VWS V14.01,2013-03-19 21:50:00,
2013-03-19 15:51:00,42.0,-6.9,29.92,West,281,12.0,16.0,12,0.00,,---,0.00,VWS V14.01,2013-03-19 21:51:00,
2013-03-19 16:00:00,41.9,-7.0,29.92,West,273,13.0,17.0,12,0.00,,---,0.00,VWS V14.01,2013-03-19 22:00:00,
2013-03-19 16:01:00,41.9,-7.0,29.92,West,273,13.0,17.0,12,0.00,,---,0.00,VWS V14.01,2013-03-19 22:01:00,
2013-03-19 16:10:00,42.4,-6.6,29.96,WSW,246,9.0,19.0,12,0.00,,---,0.00,VWS V14.01,2013-03-19 22:10:00,
2013-03-19 16:20:00,41.8,-7.1,29.97,WSW,253,6.0,21.0,12,0.00,,---,0.00,VWS V14.01,2013-03-19 22:20:00,
2013-03-19 16:21:00,41.8,-7.1,29.97,WSW,253,6.0,21.0,12,0.00,,---,0.00,VWS V14.01,2013-03-19 22:21:00,
2013-03-19 16:30:00,41.8,-5.4,29.97,West,263,4.0,19.0,13,0.00,,---,0.00,VWS V14.01,2013-03-19 22:30:00,
2013-03-19 16:40:00,42.0,-6.9,29.97,NW,325,9.0,19.0,12,0.00,,---,0.00,VWS V14.01,2013-03-19 22:40:00,
2013-03-19 16:41:00,42.0,-6.9,29.97,NW,325,9.0,19.0,12,0.00,,---,0.00,VWS V14.01,2013-03-19 22:41:00,
2013-03-19 16:50:00,41.5,-7.3,29.97,West,267,12.0,18.0,12,0.00,,---,0.00,VWS V14.01,2013-03-19 22:50:00,
2013-03-19 16:51:00,41.5,-7.3,29.97,West,267,12.0,18.0,12,0.00,,---,0.00,VWS V14.01,2013-03-19 22:51:00,
2013-03-19 17:00:00,42.0,-6.9,29.97,WSW,241,17.0,17.0,12,0.00,,---,0.00,VWS V14.01,2013-03-19 23:00:00,
2013-03-19 17:10:00,41.3,-7.5,29.97,WNW,286,8.0,22.0,12,0.00,,---,0.00,VWS V14.01,2013-03-19 23:10:00,
2013-03-19 17:20:00,41.6,-7.2,29.96,West,263,12.0,16.0,12,0.00,,---,0.00,VWS V14.01,2013-03-19 23:20:00,
2013-03-19 17:30:00,41.3,-5.8,29.97,WNW,284,13.0,18.0,13,0.00,,---,0.00,VWS V14.01,2013-03-19 23:30:00,
2013-03-19 17:40:00,41.1,-7.6,29.97,West,269,4.0,16.0,12,0.00,,---,0.00,VWS V14.01,2013-03-19 23:40:00,
2013-03-19 17:50:00,40.9,-7.8,29.97,West,267,5.0,16.0,12,0.00,,---,0.00,VWS V14.01,2013-03-19 23:50:00,
2013-03-19 18:00:00,41.1,-7.6,29.97,WSW,246,10.0,14.0,12,0.00,,---,0.00,VWS V14.01,2013-03-20 00:00:00,
2013-03-19 18:10:00,40.3,-8.3,29.98,West,278,10.0,17.0,12,0.00,,---,0.00,VWS V14.01,2013-03-20 00:10:00,
2013-03-19 18:20:00,38.9,-7.8,30.00,WSW,246,11.0,16.0,13,0.00,,---,0.00,VWS V14.01,2013-03-20 00:20:00,
2013-03-19 18:30:00,38.9,-6.2,30.01,West,260,13.0,15.0,14,0.00,,---,0.00,VWS V14.01,2013-03-20 00:30:00,
2013-03-19 18:40:00,38.0,-5.5,30.04,West,272,4.0,15.0,15,0.00,,---,0.00,VWS V14.01,2013-03-20 00:40:00,
2013-03-19 18:50:00,37.3,-6.1,30.04,West,270,10.0,13.0,15,0.00,,---,0.00,VWS V14.01,2013-03-20 00:50:00,
2013-03-19 19:00:00,36.6,-5.3,30.05,West,267,5.0,14.0,16,0.00,,---,0.00,VWS V14.01,2013-03-20 01:00:00,
2013-03-19 19:10:00,35.5,-3.8,30.05,West,267,4.0,9.0,18,0.00,,---,0.00,VWS V14.01,2013-03-20 01:10:00,
2013-03-19 19:20:00,34.4,-3.6,30.07,West,267,3.0,10.0,19,0.00,,---,0.00,VWS V14.01,2013-03-20 01:20:00,
2013-03-19 19:30:00,33.5,-4.3,30.07,West,267,3.0,10.0,19,0.00,,---,0.00,VWS V14.01,2013-03-20 01:30:00,
2013-03-19 19:40:00,33.0,-4.8,30.09,West,265,2.0,10.0,19,0.00,,---,0.00,VWS V14.01,2013-03-20 01:40:00,
2013-03-19 19:50:00,31.7,-3.8,30.10,West,265,7.0,10.0,21,0.00,,---,0.00,VWS V14.01,2013-03-20 01:50:00,
2013-03-19 20:00:00,32.1,-4.4,30.11,West,267,7.0,10.0,20,0.00,,---,0.00,VWS V14.01,2013-03-20 02:00:00,
2013-03-19 20:10:00,31.3,-4.1,30.11,West,268,0.0,9.0,21,0.00,,---,0.00,VWS V14.01,2013-03-20 02:10:00,
2013-03-19 20:20:00,30.4,-0.4,30.11,West,268,0.0,10.0,26,0.00,,---,0.00,VWS V14.01,2013-03-20 02:20:00,
2013-03-19 20:30:00,30.6,-1.9,30.12,WNW,284,4.0,10.0,24,0.00,,---,0.00,VWS V14.01,2013-03-20 02:30:00,
2013-03-19 20:40:00,29.7,-0.2,30.12,WNW,286,4.0,9.0,27,0.00,,---,0.00,VWS V14.01,2013-03-20 02:40:00,
2013-03-19 20:50:00,29.7,-2.7,30.13,North,360,12.0,13.0,24,0.00,,---,0.00,VWS V14.01,2013-03-20 02:50:00,
2013-03-19 21:00:00,31.9,-4.6,30.11,North,5,3.0,14.0,20,0.00,,---,0.00,VWS V14.01,2013-03-20 03:00:00,
2013-03-19 21:10:00,30.6,-3.7,30.11,North,360,6.0,9.0,22,0.00,,---,0.00,VWS V14.01,2013-03-20 03:10:00,
2013-03-19 21:20:00,31.2,-4.2,30.12,North,355,1.0,8.0,21,0.00,,---,0.00,VWS V14.01,2013-03-20 03:20:00,
2013-03-19 21:30:00,30.1,-2.3,30.12,NNW,330,9.0,11.0,24,0.00,,---,0.00,VWS V14.01,2013-03-20 03:30:00,
2013-03-19 21:40:00,29.2,-2.2,30.15,NW,321,5.0,13.0,25,0.00,,---,0.00,VWS V14.01,2013-03-20 03:40:00,
2013-03-19 21:50:00,28.4,-2.1,30.15,NW,321,6.0,9.0,26,0.00,,---,0.00,VWS V14.01,2013-03-20 03:50:00,
2013-03-19 22:00:00,28.9,-4.2,30.15,NW,319,6.0,10.0,23,0.00,,---,0.00,VWS V14.01,2013-03-20 04:00:00,
2013-03-19 22:10:00,27.8,-2.6,30.14,NW,319,2.0,6.0,26,0.00,,---,0.00,VWS V14.01,2013-03-20 04:10:00,
2013-03-19 22:20:00,28.5,-4.6,30.15,NW,318,3.0,9.0,23,0.00,,---,0.00,VWS V14.01,2013-03-20 04:20:00,
2013-03-19 22:30:00,29.0,-6.0,30.13,NW,318,7.0,9.0,21,0.00,,---,0.00,VWS V14.01,2013-03-20 04:30:00,
2013-03-19 22:40:00,28.8,-4.3,30.12,NW,317,5.0,11.0,23,0.00,,---,0.00,VWS V14.01,2013-03-20 04:40:00,
2013-03-19 22:50:00,29.7,-5.4,30.12,NW,315,9.0,13.0,21,0.00,,---,0.00,VWS V14.01,2013-03-20 04:50:00,
2013-03-19 23:00:00,29.8,-6.4,30.12,NW,314,2.0,11.0,20,0.00,,---,0.00,VWS V14.01,2013-03-20 05:00:00,
2013-03-19 23:10:00,27.7,-4.4,30.13,NW,315,0.0,2.0,24,0.00,,---,0.00,VWS V14.01,2013-03-20 05:10:00,
2013-03-19 23:20:00,26.5,-4.6,30.15,NW,314,2.0,3.0,25,0.00,,---,0.00,VWS V14.01,2013-03-20 05:20:00,
2013-03-19 23:30:00,25.4,-3.9,30.15,NW,315,0.0,4.0,27,0.00,,---,0.00,VWS V14.01,2013-03-20 05:30:00,
2013-03-19 23:40:00,25.5,-6.3,30.15,NW,314,0.0,2.0,24,0.00,,---,0.00,VWS V14.01,2013-03-20 05:40:00,
2013-03-19 23:50:00,25.8,-6.0,30.14,NW,315,0.0,1.0,24,0.00,,---,0.00,VWS V14.01,2013-03-20 05:50:00,